Terminal Aerodrome Forecast
Issued by NWS

Current Version | Previous Version | Text Only | Print | Product List | Glossary On
Versions: 1 2 3 4 5 6 7 8 9 10 11 12 13 14 15 16 17 18 19 20 21 22
000
FTUS41 KPHI 210416 AAC
TAFPNE
TAF AMD
KPNE 210416Z 2104/2124 14007KT 6SM SHRA FEW040 OVC100
      TEMPO 2104/2106 25018G30KT 2SM +TSRA BKN020CB
     FM210600 24009KT P6SM VCSH BKN040
     FM210900 28008KT 6SM BR BKN040
     FM211200 28013G24KT P6SM SCT050=

USA.gov is the U.S. government's official web portal to all federal, state and local government web resources and services.